Bad Nation, South Dakota
Current Conditions -  °F | °C
As of 5:53 AM on Tuesday 21 Oct 2014 (Local Time) from KICR Reporting Station
Clear Clear  
Wind Chill: 60°   Ceiling: Unl
Heat Index: 60°   Visibility: 10mi
Dew Point: 39°   Wind: 22mph
Humidity: 46%   Direction: 190°S
Pressure: 29.92"   Gusts: NA
Location:  43.5595°N, 100.408°W
Report Text: KICR 211053Z AUTO 19019KT 10SM CLR 16/04 A2992 RMK AO2 SLP122 T01560039
Loading
Personal Weather Stations






























Interactive Weather Map
Tropical Storm Tracking
New forecast layout! Learn more

10-Day Weather Forecast

Advertisements
Track Severe Weather on mobile